createdAt,value
2023-08-28T00:00:11.432Z,4.90
2023-08-28T00:02:38.620Z,5.17
2023-08-28T00:05:05.586Z,8.90
2023-08-28T00:07:32.275Z,3.70
2023-08-28T00:09:59.471Z,4.70
2023-08-28T00:12:26.317Z,4.30
2023-08-28T00:14:53.428Z,4.60
2023-08-28T00:17:20.577Z,4.77
2023-08-28T00:19:47.737Z,5.00
2023-08-28T00:22:14.426Z,3.30
2023-08-28T00:24:41.586Z,3.30
2023-08-28T00:27:08.314Z,5.00
2023-08-28T00:29:35.509Z,3.23
2023-08-28T00:32:02.699Z,3.03
2023-08-28T00:34:29.842Z,6.33
2023-08-28T00:36:56.602Z,5.70
2023-08-28T00:39:23.726Z,3.73
2023-08-28T00:41:50.450Z,3.73
2023-08-28T00:44:17.230Z,3.33
2023-08-28T00:46:45.162Z,3.17
2023-08-28T00:49:12.804Z,5.60
2023-08-28T00:51:41.342Z,3.40
2023-08-28T00:54:09.085Z,3.73
2023-08-28T00:56:37.114Z,4.33
2023-08-28T00:59:04.734Z,3.73
2023-08-28T01:01:31.575Z,4.00
2023-08-28T01:03:58.850Z,3.37
2023-08-28T01:06:30.212Z,3.43
2023-08-28T01:09:09.299Z,4.77
2023-08-28T01:11:46.532Z,3.57
2023-08-28T01:14:22.813Z,3.57
2023-08-28T01:16:51.352Z,3.33
2023-08-28T01:19:33.886Z,4.83
2023-08-28T01:22:21.842Z,3.37
2023-08-28T01:24:52.802Z,6.43
2023-08-28T01:27:22.931Z,4.97
2023-08-28T01:30:15.946Z,3.37
2023-08-28T01:32:45.390Z,3.23
2023-08-28T01:35:22.063Z,5.13
2023-08-28T01:38:17.603Z,4.93
2023-08-28T01:41:12.327Z,3.90
2023-08-28T01:43:40.520Z,4.07
2023-08-28T01:46:07.946Z,4.63
2023-08-28T01:48:36.623Z,5.30
2023-08-28T01:51:03.478Z,4.50
2023-08-28T01:53:30.862Z,3.63
2023-08-28T01:56:09.497Z,4.33
2023-08-28T01:58:59.308Z,4.27
2023-08-28T02:01:27.306Z,4.30
2023-08-28T02:03:54.368Z,3.97
2023-08-28T02:06:21.808Z,3.93
2023-08-28T02:08:49.006Z,3.23
2023-08-28T02:11:16.306Z,3.40
2023-08-28T02:13:43.074Z,4.43
2023-08-28T02:16:09.899Z,4.10
2023-08-28T02:18:37.044Z,3.53
2023-08-28T02:21:04.242Z,6.23
2023-08-28T02:23:31.484Z,5.37
2023-08-28T02:25:58.642Z,4.20
2023-08-28T02:28:26.329Z,3.47
2023-08-28T02:30:53.308Z,4.10
2023-08-28T02:33:20.214Z,3.53
2023-08-28T02:35:46.925Z,4.20
2023-08-28T02:38:14.087Z,3.40
2023-08-28T02:40:41.066Z,4.47
2023-08-28T02:43:10.199Z,3.73
2023-08-28T02:45:41.020Z,6.03
2023-08-28T02:48:10.985Z,4.23
2023-08-28T02:50:38.267Z,3.90
2023-08-28T02:53:05.941Z,3.30
2023-08-28T02:55:40.563Z,6.97
2023-08-28T02:58:07.650Z,5.10
2023-08-28T03:00:35.192Z,4.43
2023-08-28T03:03:02.498Z,4.37
2023-08-28T03:05:29.503Z,5.90
2023-08-28T03:07:56.281Z,5.90
2023-08-28T03:10:23.797Z,5.23
2023-08-28T03:12:50.908Z,4.53
2023-08-28T03:15:17.634Z,6.67
2023-08-28T03:17:44.826Z,5.50
2023-08-28T03:20:11.760Z,3.67
2023-08-28T03:22:38.533Z,4.00
2023-08-28T03:25:06.203Z,6.67
2023-08-28T03:27:33.458Z,4.30
2023-08-28T03:30:00.633Z,4.87
2023-08-28T03:32:27.775Z,4.00
2023-08-28T03:34:54.859Z,3.30
2023-08-28T03:37:21.559Z,2.90
2023-08-28T03:39:48.643Z,3.30
2023-08-28T03:42:15.723Z,4.30
2023-08-28T03:44:43.057Z,3.80
2023-08-28T03:47:09.906Z,4.50
2023-08-28T03:49:37.006Z,4.30
2023-08-28T03:52:03.978Z,4.77
2023-08-28T03:54:31.132Z,3.70
2023-08-28T03:56:58.219Z,3.97
2023-08-28T03:59:24.910Z,3.60
2023-08-28T04:01:52.322Z,4.23
2023-08-28T04:04:19.153Z,5.57
2023-08-28T04:06:47.945Z,4.70
2023-08-28T04:09:15.905Z,5.47
2023-08-28T04:11:43.342Z,4.50
2023-08-28T04:14:10.505Z,5.00
2023-08-28T04:16:37.655Z,5.23
2023-08-28T04:19:04.904Z,3.87
2023-08-28T04:21:31.839Z,5.83
2023-08-28T04:23:58.543Z,5.00
2023-08-28T04:26:25.622Z,4.50
2023-08-28T04:28:52.743Z,5.50
2023-08-28T04:31:20.364Z,6.27
2023-08-28T04:33:47.124Z,4.90
2023-08-28T04:36:14.265Z,6.17
2023-08-28T04:38:40.962Z,5.47
2023-08-28T04:41:08.137Z,7.20
2023-08-28T04:43:34.932Z,4.00
2023-08-28T04:46:02.398Z,3.70
2023-08-28T04:48:29.855Z,6.73
2023-08-28T04:50:56.961Z,3.67
2023-08-28T04:53:24.105Z,5.60
2023-08-28T04:55:51.237Z,4.17
2023-08-28T04:58:18.375Z,5.00
2023-08-28T05:00:45.521Z,4.23
2023-08-28T05:03:13.805Z,4.10
2023-08-28T05:05:42.128Z,4.43
2023-08-28T05:08:10.743Z,4.23
2023-08-28T05:10:37.551Z,4.37
2023-08-28T05:13:04.800Z,3.93
2023-08-28T05:15:31.813Z,4.13
2023-08-28T05:17:58.677Z,5.90
2023-08-28T05:20:25.821Z,4.73
2023-08-28T05:22:52.931Z,6.23
2023-08-28T05:25:20.103Z,3.50
2023-08-28T05:27:47.254Z,3.57
2023-08-28T05:30:14.160Z,3.53
2023-08-28T05:32:41.310Z,4.93
2023-08-28T05:35:09.161Z,4.17
2023-08-28T05:37:36.322Z,6.47
2023-08-28T05:40:03.422Z,4.17
2023-08-28T05:42:30.558Z,4.73
2023-08-28T05:44:57.478Z,4.47
2023-08-28T05:47:24.177Z,4.27
2023-08-28T05:49:50.950Z,4.20
2023-08-28T05:52:18.163Z,5.60
2023-08-28T05:54:44.878Z,4.10
2023-08-28T05:57:11.676Z,3.60
2023-08-28T05:59:38.758Z,3.47
2023-08-28T06:02:06.061Z,5.17
2023-08-28T06:04:33.002Z,5.03
2023-08-28T06:06:59.700Z,4.57
2023-08-28T06:09:26.776Z,6.53
2023-08-28T06:11:53.898Z,5.47
2023-08-28T06:14:24.680Z,4.20
2023-08-28T06:16:51.858Z,5.60
2023-08-28T06:19:18.968Z,4.30
2023-08-28T06:21:46.350Z,5.13
2023-08-28T06:24:13.319Z,3.80
2023-08-28T06:26:41.553Z,4.57
2023-08-28T06:29:08.721Z,5.90
2023-08-28T06:31:36.093Z,5.00
2023-08-28T06:34:03.583Z,4.40
2023-08-28T06:36:31.640Z,5.90
2023-08-28T06:38:58.968Z,4.40
2023-08-28T06:41:25.731Z,5.27
2023-08-28T06:43:52.430Z,4.50
2023-08-28T06:46:19.586Z,4.10
2023-08-28T06:48:46.773Z,4.40
2023-08-28T06:51:13.469Z,5.10
2023-08-28T06:53:40.191Z,5.37
2023-08-28T06:56:07.323Z,6.13
2023-08-28T06:58:33.992Z,6.47
2023-08-28T07:01:01.143Z,5.90
2023-08-28T07:03:28.459Z,6.93
2023-08-28T07:05:57.834Z,4.43
2023-08-28T07:08:25.117Z,5.73
2023-08-28T07:10:52.368Z,4.53
2023-08-28T07:13:19.392Z,4.57
2023-08-28T07:15:46.058Z,5.60
2023-08-28T07:18:12.768Z,4.60
2023-08-28T07:20:39.896Z,5.93
2023-08-28T07:23:06.997Z,4.03
2023-08-28T07:25:34.053Z,5.43
2023-08-28T07:28:01.189Z,5.80
2023-08-28T07:30:28.357Z,5.07
2023-08-28T07:32:55.564Z,6.73
2023-08-28T07:35:22.762Z,5.13
2023-08-28T07:37:49.928Z,6.10
2023-08-28T07:40:17.127Z,4.60
2023-08-28T07:42:44.233Z,5.77
2023-08-28T07:45:10.988Z,6.53
2023-08-28T07:47:39.284Z,4.27
2023-08-28T07:50:06.634Z,5.47
2023-08-28T07:52:33.357Z,5.33
2023-08-28T07:55:00.026Z,5.43
2023-08-28T07:57:27.189Z,6.00
2023-08-28T07:59:54.335Z,6.47
2023-08-28T08:02:21.050Z,7.70
2023-08-28T08:04:48.178Z,6.40
2023-08-28T08:07:15.295Z,7.57
2023-08-28T08:09:41.969Z,5.90
2023-08-28T08:12:09.325Z,6.07
2023-08-28T08:14:36.052Z,7.37
2023-08-28T08:17:03.252Z,6.07
2023-08-28T08:19:29.973Z,7.33
2023-08-28T08:21:57.153Z,5.33
2023-08-28T08:24:23.911Z,5.03
2023-08-28T08:26:50.747Z,6.07
2023-08-28T08:29:17.846Z,7.23
2023-08-28T08:31:44.572Z,8.33
2023-08-28T08:34:11.701Z,6.13
2023-08-28T08:36:40.500Z,6.23
2023-08-28T08:39:07.621Z,4.60
2023-08-28T08:41:34.405Z,5.95
2023-08-28T08:44:01.268Z,9.13
2023-08-28T08:46:28.485Z,5.38
2023-08-28T08:49:00.430Z,5.05
2023-08-28T08:51:31.030Z,4.80
2023-08-28T08:54:10.255Z,6.50
2023-08-28T08:56:38.684Z,7.88
2023-08-28T08:59:05.614Z,6.88
2023-08-28T09:01:32.813Z,6.63
2023-08-28T09:04:00.159Z,9.95
2023-08-28T09:06:33.419Z,8.43
2023-08-28T09:09:02.408Z,9.13
2023-08-28T09:11:29.714Z,5.47
2023-08-28T09:13:56.848Z,8.30
2023-08-28T09:16:24.841Z,4.95
2023-08-28T09:18:51.728Z,6.23
2023-08-28T09:21:18.892Z,6.20
2023-08-28T09:23:54.286Z,6.10
2023-08-28T09:26:23.884Z,6.57
2023-08-28T09:29:08.162Z,5.40
2023-08-28T09:31:43.929Z,6.82
2023-08-28T09:34:10.938Z,7.78
2023-08-28T09:36:43.343Z,8.40
2023-08-28T09:39:13.237Z,6.88
2023-08-28T09:41:44.851Z,6.25
2023-08-28T09:44:12.662Z,7.78
2023-08-28T09:46:39.531Z,4.45
2023-08-28T09:49:09.125Z,7.75
2023-08-28T09:51:51.867Z,4.63
2023-08-28T09:54:19.202Z,10.13
2023-08-28T09:56:46.295Z,4.65
2023-08-28T09:59:14.988Z,4.70
2023-08-28T10:01:42.213Z,7.65
2023-08-28T10:04:16.298Z,5.00
2023-08-28T10:06:51.198Z,4.35
2023-08-28T10:09:22.520Z,4.18
2023-08-28T10:11:53.031Z,4.53
2023-08-28T10:14:22.188Z,4.07
2023-08-28T10:16:58.287Z,4.88
2023-08-28T10:19:52.727Z,4.67
2023-08-28T10:22:20.114Z,4.70
2023-08-28T10:24:47.644Z,4.47
2023-08-28T10:27:15.876Z,4.28
2023-08-28T10:29:45.277Z,4.93
2023-08-28T10:32:12.539Z,4.03
2023-08-28T10:34:41.015Z,3.95
2023-08-28T10:37:21.877Z,4.80
2023-08-28T10:39:50.319Z,5.30
2023-08-28T10:42:22.101Z,6.63
2023-08-28T10:44:49.243Z,4.87
2023-08-28T10:47:20.496Z,4.70
2023-08-28T10:49:47.312Z,6.03
2023-08-28T10:52:14.468Z,4.10
2023-08-28T10:54:45.211Z,4.20
2023-08-28T10:57:25.290Z,3.88
2023-08-28T10:59:52.444Z,4.18
2023-08-28T11:02:20.307Z,7.50
2023-08-28T11:04:47.688Z,5.00
2023-08-28T11:07:23.582Z,4.53
2023-08-28T11:09:50.972Z,3.72
2023-08-28T11:12:20.651Z,3.13
2023-08-28T11:14:54.448Z,4.70
2023-08-28T11:17:25.358Z,6.85
2023-08-28T11:19:55.899Z,3.67
2023-08-28T11:22:36.165Z,5.03
2023-08-28T11:25:11.756Z,3.53
2023-08-28T11:27:38.446Z,3.60
2023-08-28T11:30:06.802Z,3.53
2023-08-28T11:32:35.113Z,3.08
2023-08-28T11:35:05.958Z,2.95
2023-08-28T11:37:34.049Z,3.97
2023-08-28T11:40:01.174Z,4.10
2023-08-28T11:42:29.342Z,3.92
2023-08-28T11:44:56.607Z,3.03
2023-08-28T11:47:31.760Z,3.83
2023-08-28T11:49:58.688Z,3.60
2023-08-28T11:52:25.805Z,2.80
2023-08-28T11:54:53.585Z,2.72
2023-08-28T11:57:22.804Z,2.53
2023-08-28T11:59:50.674Z,2.67
2023-08-28T12:02:17.907Z,4.10
2023-08-28T12:04:44.638Z,2.83
2023-08-28T12:07:25.688Z,3.95
2023-08-28T12:09:53.993Z,4.70
2023-08-28T12:12:21.822Z,4.20
2023-08-28T12:14:50.669Z,6.90
2023-08-28T12:17:25.228Z,2.38
2023-08-28T12:19:53.175Z,2.65
2023-08-28T12:22:24.214Z,3.65
2023-08-28T12:24:52.065Z,6.05
2023-08-28T12:27:27.112Z,2.22
2023-08-28T12:29:57.308Z,2.22
2023-08-28T12:32:24.340Z,2.50
2023-08-28T12:34:51.532Z,2.45
2023-08-28T12:37:19.072Z,3.72
2023-08-28T12:39:51.751Z,3.15
2023-08-28T12:42:19.648Z,3.13
2023-08-28T12:44:46.906Z,4.70
2023-08-28T12:47:15.236Z,9.85
2023-08-28T12:49:42.940Z,2.25
2023-08-28T12:52:10.580Z,4.93
2023-08-28T12:54:39.601Z,4.07
2023-08-28T12:57:06.891Z,3.05
2023-08-28T12:59:34.122Z,5.55
2023-08-28T13:02:01.697Z,3.25
2023-08-28T13:04:29.040Z,4.75
2023-08-28T13:06:55.876Z,2.50
2023-08-28T13:09:23.774Z,4.13
2023-08-28T13:11:51.525Z,2.58
2023-08-28T13:14:18.246Z,3.17
2023-08-28T13:16:45.474Z,2.40
2023-08-28T13:19:12.209Z,4.30
2023-08-28T13:21:39.362Z,2.38
2023-08-28T13:24:06.621Z,1.95
2023-08-28T13:26:33.788Z,3.13
2023-08-28T13:29:00.831Z,2.30
2023-08-28T13:31:29.321Z,3.60
2023-08-28T13:33:56.509Z,4.43
2023-08-28T13:36:23.609Z,2.67
2023-08-28T13:38:50.710Z,2.15
2023-08-28T13:41:19.535Z,2.17
2023-08-28T13:43:46.652Z,2.53
2023-08-28T13:46:13.802Z,3.85
2023-08-28T13:48:40.986Z,2.55
2023-08-28T13:51:08.287Z,2.83
2023-08-28T13:53:35.498Z,2.67
2023-08-28T13:56:02.756Z,4.78
2023-08-28T13:58:32.629Z,1.90
2023-08-28T14:01:03.377Z,1.80
2023-08-28T14:03:31.259Z,3.20
2023-08-28T14:06:05.101Z,2.95
2023-08-28T14:08:32.658Z,2.00
2023-08-28T14:11:10.383Z,2.92
2023-08-28T14:13:38.414Z,3.25
2023-08-28T14:16:05.831Z,2.53
2023-08-28T14:18:33.061Z,2.38
2023-08-28T14:21:01.795Z,2.15
2023-08-28T14:23:28.919Z,4.05
2023-08-28T14:26:04.378Z,3.15
2023-08-28T14:28:31.806Z,3.28
2023-08-28T14:30:58.919Z,2.50
2023-08-28T14:33:26.137Z,3.10
2023-08-28T14:35:53.256Z,3.05
2023-08-28T14:38:19.964Z,2.90
2023-08-28T14:40:52.215Z,3.55
2023-08-28T14:43:19.495Z,4.43
2023-08-28T14:45:46.677Z,2.70
2023-08-28T14:48:14.054Z,2.60
2023-08-28T14:50:41.140Z,3.47
2023-08-28T14:53:08.611Z,2.47
2023-08-28T14:55:35.679Z,3.08
2023-08-28T14:58:06.142Z,2.10
2023-08-28T15:00:35.364Z,2.22
2023-08-28T15:03:02.845Z,1.60
2023-08-28T15:05:33.678Z,3.70
2023-08-28T15:08:11.964Z,2.10
2023-08-28T15:10:44.779Z,4.68
2023-08-28T15:13:11.945Z,3.22
2023-08-28T15:15:44.892Z,3.10
2023-08-28T15:18:11.981Z,2.70
2023-08-28T15:20:39.185Z,3.05
2023-08-28T15:23:06.619Z,2.63
2023-08-28T15:25:33.557Z,2.58
2023-08-28T15:28:01.529Z,2.30
2023-08-28T15:30:30.982Z,2.95
2023-08-28T15:32:57.998Z,2.72
2023-08-28T15:35:24.836Z,3.97
2023-08-28T15:37:51.971Z,3.13
2023-08-28T15:40:19.137Z,3.67
2023-08-28T15:42:48.679Z,4.90
2023-08-28T15:45:15.885Z,2.63
2023-08-28T15:47:45.083Z,2.72
2023-08-28T15:50:11.975Z,3.28
2023-08-28T15:52:38.660Z,2.83
2023-08-28T15:55:05.973Z,2.65
2023-08-28T15:57:33.124Z,2.67
2023-08-28T15:59:59.809Z,2.38
2023-08-28T16:02:26.961Z,2.15
2023-08-28T16:04:54.081Z,3.20
2023-08-28T16:07:22.530Z,3.03
2023-08-28T16:09:49.663Z,3.33
2023-08-28T16:12:17.042Z,2.17
2023-08-28T16:14:44.167Z,3.60
2023-08-28T16:17:11.244Z,2.00
2023-08-28T16:19:38.349Z,1.92
2023-08-28T16:22:05.619Z,1.85
2023-08-28T16:24:32.798Z,1.80
2023-08-28T16:26:59.911Z,2.08
2023-08-28T16:29:28.507Z,2.28
2023-08-28T16:31:55.716Z,2.80
2023-08-28T16:34:24.957Z,2.80
2023-08-28T16:36:52.060Z,2.53
2023-08-28T16:39:19.184Z,3.35
2023-08-28T16:41:45.974Z,3.25
2023-08-28T16:44:13.172Z,2.58
2023-08-28T16:46:40.303Z,1.75
2023-08-28T16:49:07.159Z,2.13
2023-08-28T16:51:34.299Z,2.15
2023-08-28T16:54:01.025Z,2.70
2023-08-28T16:56:28.313Z,2.30
2023-08-28T16:58:56.911Z,3.45
2023-08-28T17:01:24.168Z,3.00
2023-08-28T17:03:51.657Z,3.22
2023-08-28T17:06:18.855Z,4.43
2023-08-28T17:08:46.014Z,4.97
2023-08-28T17:11:12.869Z,3.78
2023-08-28T17:13:40.250Z,3.42
2023-08-28T17:16:07.192Z,4.80
2023-08-28T17:18:34.369Z,4.13
2023-08-28T17:21:01.507Z,4.15
2023-08-28T17:23:28.658Z,2.60
2023-08-28T17:25:55.812Z,2.13
2023-08-28T17:28:23.086Z,3.08
2023-08-28T17:30:50.218Z,2.35
2023-08-28T17:33:18.483Z,2.90
2023-08-28T17:35:45.259Z,4.93
2023-08-28T17:38:12.080Z,5.38
2023-08-28T17:40:43.131Z,4.07
2023-08-28T17:43:10.382Z,3.58
2023-08-28T17:45:40.184Z,3.53
2023-08-28T17:48:07.934Z,2.85
2023-08-28T17:50:35.123Z,4.47
2023-08-28T17:53:02.851Z,4.23
2023-08-28T17:55:30.881Z,6.00
2023-08-28T17:57:58.052Z,3.80
2023-08-28T18:00:25.192Z,6.47
2023-08-28T18:02:59.849Z,7.43
2023-08-28T18:05:30.754Z,7.05
2023-08-28T18:07:57.907Z,5.30
2023-08-28T18:10:24.647Z,3.22
2023-08-28T18:12:51.828Z,4.43
2023-08-28T18:15:19.020Z,2.97
2023-08-28T18:17:47.097Z,3.03
2023-08-28T18:20:14.354Z,5.33
2023-08-28T18:22:41.575Z,4.80
2023-08-28T18:25:08.925Z,4.30
2023-08-28T18:27:45.733Z,3.47
2023-08-28T18:30:20.282Z,3.90
2023-08-28T18:32:47.487Z,4.20
2023-08-28T18:35:14.427Z,4.30
2023-08-28T18:37:41.133Z,3.90
2023-08-28T18:40:08.991Z,5.23
2023-08-28T18:42:36.153Z,4.00
2023-08-28T18:45:03.304Z,16.00
2023-08-28T18:47:30.460Z,9.70
2023-08-28T18:49:58.165Z,8.03
2023-08-28T18:52:25.315Z,6.57
2023-08-28T18:54:52.744Z,6.03
2023-08-28T18:57:19.916Z,4.33
2023-08-28T18:59:47.039Z,4.33
2023-08-28T19:02:13.805Z,4.40
2023-08-28T19:04:41.125Z,4.73
2023-08-28T19:07:08.420Z,6.50
2023-08-28T19:09:36.053Z,5.38
2023-08-28T19:12:03.601Z,4.47
2023-08-28T19:14:31.253Z,4.77
2023-08-28T19:16:57.944Z,4.70
2023-08-28T19:19:25.106Z,5.13
2023-08-28T19:21:52.232Z,7.50
2023-08-28T19:24:19.425Z,5.90
2023-08-28T19:26:46.104Z,5.93
2023-08-28T19:29:13.211Z,5.57
2023-08-28T19:31:40.382Z,6.17
2023-08-28T19:34:07.583Z,5.03
2023-08-28T19:36:34.288Z,6.73
2023-08-28T19:39:01.771Z,6.27
2023-08-28T19:41:28.915Z,6.57
2023-08-28T19:43:55.602Z,6.87
2023-08-28T19:46:22.433Z,6.20
2023-08-28T19:48:49.560Z,5.93
2023-08-28T19:51:16.251Z,7.03
2023-08-28T19:53:43.708Z,7.57
2023-08-28T19:56:10.522Z,6.17
2023-08-28T19:58:37.701Z,7.47
2023-08-28T20:01:04.917Z,6.37
2023-08-28T20:03:32.226Z,6.90
2023-08-28T20:06:03.801Z,6.80
2023-08-28T20:08:31.085Z,7.17
2023-08-28T20:10:58.221Z,6.80
2023-08-28T20:13:25.526Z,6.53
2023-08-28T20:15:52.858Z,7.80
2023-08-28T20:18:20.309Z,6.27
2023-08-28T20:20:47.809Z,9.40
2023-08-28T20:23:14.903Z,6.90
2023-08-28T20:25:43.403Z,6.63
2023-08-28T20:28:10.574Z,6.30
2023-08-28T20:30:37.370Z,8.43
2023-08-28T20:33:04.647Z,7.57
2023-08-28T20:35:31.418Z,8.50
2023-08-28T20:37:58.617Z,7.97
2023-08-28T20:40:25.733Z,7.87
2023-08-28T20:42:52.872Z,6.67
2023-08-28T20:45:19.973Z,6.07
2023-08-28T20:47:52.715Z,8.37
2023-08-28T20:50:19.752Z,7.80
2023-08-28T20:52:47.460Z,8.97
2023-08-28T20:55:14.456Z,9.73
2023-08-28T20:57:41.278Z,9.03
2023-08-28T21:00:08.689Z,8.53
2023-08-28T21:02:35.556Z,8.60
2023-08-28T21:05:03.041Z,9.07
2023-08-28T21:07:30.212Z,9.00
2023-08-28T21:09:57.395Z,8.10
2023-08-28T21:12:24.511Z,9.10
2023-08-28T21:14:51.597Z,8.53
2023-08-28T21:17:18.733Z,9.63
2023-08-28T21:19:45.838Z,10.20
2023-08-28T21:22:12.564Z,8.03
2023-08-28T21:24:39.755Z,8.53
2023-08-28T21:27:06.520Z,9.43
2023-08-28T21:29:33.630Z,9.37
2023-08-28T21:32:00.793Z,8.37
2023-08-28T21:34:27.894Z,8.63
2023-08-28T21:36:54.617Z,9.17
2023-08-28T21:39:22.781Z,7.83
2023-08-28T21:41:49.945Z,8.13
2023-08-28T21:44:17.144Z,8.10
2023-08-28T21:46:44.272Z,9.23
2023-08-28T21:49:11.018Z,10.40
2023-08-28T21:51:38.129Z,10.83
2023-08-28T21:54:04.932Z,9.27
2023-08-28T21:56:32.027Z,9.33
2023-08-28T21:58:58.726Z,10.67
2023-08-28T22:01:25.469Z,9.80
2023-08-28T22:03:52.701Z,9.27
2023-08-28T22:06:19.471Z,9.00
2023-08-28T22:08:46.622Z,11.23
2023-08-28T22:11:13.334Z,10.30
2023-08-28T22:13:40.465Z,10.87
2023-08-28T22:16:07.295Z,10.73
2023-08-28T22:18:34.639Z,10.70
2023-08-28T22:21:04.312Z,9.40
2023-08-28T22:23:31.309Z,8.67
2023-08-28T22:25:58.068Z,10.57
2023-08-28T22:28:25.168Z,9.93
2023-08-28T22:30:51.903Z,11.10
2023-08-28T22:33:18.984Z,10.77
2023-08-28T22:35:45.689Z,11.13
2023-08-28T22:38:12.387Z,11.07
2023-08-28T22:40:39.557Z,10.90
2023-08-28T22:43:06.901Z,11.63
2023-08-28T22:45:33.703Z,11.23
2023-08-28T22:48:00.881Z,10.93
2023-08-28T22:50:27.718Z,12.40
2023-08-28T22:52:54.401Z,11.47
2023-08-28T22:55:21.521Z,12.73
2023-08-28T22:57:48.474Z,11.37
2023-08-28T23:00:17.420Z,10.17
2023-08-28T23:02:44.262Z,10.23
2023-08-28T23:05:11.908Z,10.30
2023-08-28T23:07:39.118Z,9.47
2023-08-28T23:10:06.249Z,10.07
2023-08-28T23:12:32.951Z,10.83
2023-08-28T23:15:00.149Z,9.63
2023-08-28T23:17:27.329Z,14.63
2023-08-28T23:19:54.102Z,10.37
2023-08-28T23:22:21.327Z,10.60
2023-08-28T23:24:49.017Z,10.90
2023-08-28T23:27:20.718Z,9.83
2023-08-28T23:29:47.770Z,10.27
2023-08-28T23:32:14.647Z,10.73
2023-08-28T23:34:41.889Z,11.03
2023-08-28T23:37:10.559Z,10.20
2023-08-28T23:39:37.760Z,10.33
2023-08-28T23:42:05.346Z,10.77
2023-08-28T23:44:32.744Z,10.63
2023-08-28T23:47:00.060Z,10.93
2023-08-28T23:49:26.824Z,13.17
2023-08-28T23:51:53.985Z,10.70
2023-08-28T23:54:21.135Z,11.03
2023-08-28T23:56:47.832Z,13.33
2023-08-28T23:59:14.928Z,11.40
